createdAt,value
2019-02-10T00:01:01.143Z,44.20
2019-02-10T00:03:56.117Z,44.30
2019-02-10T00:06:51.226Z,44.30
2019-02-10T00:09:46.254Z,44.40
2019-02-10T00:12:41.866Z,44.40
2019-02-10T00:15:36.989Z,44.40
2019-02-10T00:18:31.725Z,44.40
2019-02-10T00:21:26.912Z,44.30
2019-02-10T00:24:22.011Z,44.30
2019-02-10T00:27:16.793Z,44.40
2019-02-10T00:30:11.811Z,44.40
2019-02-10T00:33:06.766Z,44.50
2019-02-10T00:36:02.062Z,44.60
2019-02-10T00:38:57.138Z,44.60
2019-02-10T00:41:52.018Z,44.60
2019-02-10T00:44:46.870Z,44.80
2019-02-10T00:47:41.455Z,44.70
2019-02-10T00:50:37.874Z,44.70
2019-02-10T00:53:33.029Z,44.70
2019-02-10T00:56:28.184Z,44.70
2019-02-10T00:59:23.344Z,44.80
2019-02-10T01:02:18.491Z,44.90
2019-02-10T01:05:13.822Z,44.90
2019-02-10T01:08:08.968Z,45.00
2019-02-10T01:11:04.122Z,44.30
2019-02-10T01:13:59.047Z,45.10
2019-02-10T01:16:54.585Z,45.20
2019-02-10T01:19:50.127Z,45.20
2019-02-10T01:22:45.189Z,45.30
2019-02-10T01:25:40.049Z,45.30
2019-02-10T01:28:35.510Z,45.30
2019-02-10T01:31:31.141Z,45.40
2019-02-10T01:34:26.159Z,45.50
2019-02-10T01:37:21.292Z,45.50
2019-02-10T01:40:16.398Z,45.60
2019-02-10T01:43:11.552Z,45.70
2019-02-10T01:46:07.055Z,45.70
2019-02-10T01:49:02.373Z,45.80
2019-02-10T01:51:57.445Z,45.90
2019-02-10T01:54:52.786Z,45.90
2019-02-10T01:57:48.176Z,45.90
2019-02-10T02:00:43.414Z,46.00
2019-02-10T02:03:38.006Z,46.00
2019-02-10T02:06:32.963Z,46.00
2019-02-10T02:09:27.647Z,45.90
2019-02-10T02:12:22.694Z,45.90
2019-02-10T02:15:20.662Z,45.90
2019-02-10T02:18:15.578Z,45.70
2019-02-10T02:21:10.628Z,45.70
2019-02-10T02:24:05.850Z,45.00
2019-02-10T02:27:01.050Z,45.60
2019-02-10T02:29:55.779Z,45.50
2019-02-10T02:32:50.503Z,45.40
2019-02-10T02:35:45.310Z,45.50
2019-02-10T02:38:40.375Z,45.50
2019-02-10T02:41:35.019Z,45.50
2019-02-10T02:44:30.030Z,45.60
2019-02-10T02:47:24.909Z,45.60
2019-02-10T02:50:19.501Z,45.50
2019-02-10T02:53:14.776Z,45.50
2019-02-10T02:56:09.833Z,45.50
2019-02-10T02:59:05.579Z,45.50
2019-02-10T03:02:00.518Z,45.40
2019-02-10T03:04:55.514Z,45.40
2019-02-10T03:07:50.649Z,45.40
2019-02-10T03:10:46.031Z,45.40
2019-02-10T03:13:40.814Z,45.40
2019-02-10T03:16:35.820Z,45.50
2019-02-10T03:19:30.864Z,45.50
2019-02-10T03:22:26.051Z,45.60
2019-02-10T03:25:21.404Z,45.40
2019-02-10T03:28:16.297Z,45.40
2019-02-10T03:31:11.418Z,45.50
2019-02-10T03:34:06.630Z,45.60
2019-02-10T03:37:02.333Z,45.70
2019-02-10T03:39:57.811Z,45.80
2019-02-10T03:42:53.378Z,45.70
2019-02-10T03:45:48.821Z,45.70
2019-02-10T03:48:43.728Z,45.60
2019-02-10T03:51:41.809Z,45.70
2019-02-10T03:54:36.849Z,45.60
2019-02-10T03:57:32.844Z,45.60
2019-02-10T04:00:30.789Z,45.70
2019-02-10T04:03:25.617Z,45.70
2019-02-10T04:06:20.716Z,45.70
2019-02-10T04:09:15.839Z,45.70
2019-02-10T04:12:11.907Z,45.00
2019-02-10T04:15:09.486Z,45.70
2019-02-10T04:18:07.637Z,45.80
2019-02-10T04:21:03.373Z,45.70
2019-02-10T04:23:59.702Z,45.60
2019-02-10T04:26:55.143Z,45.50
2019-02-10T04:29:50.771Z,45.60
2019-02-10T04:32:46.102Z,45.50
2019-02-10T04:35:41.864Z,45.40
2019-02-10T04:38:41.291Z,45.40
2019-02-10T04:41:37.711Z,45.40
2019-02-10T04:44:36.927Z,45.40
2019-02-10T04:47:32.346Z,46.10
2019-02-10T04:50:30.603Z,45.40
2019-02-10T04:53:26.210Z,45.50
2019-02-10T04:56:23.075Z,45.60
2019-02-10T04:59:18.674Z,45.60
2019-02-10T05:02:14.829Z,45.30
2019-02-10T05:05:10.211Z,45.10
2019-02-10T05:08:05.728Z,45.10
2019-02-10T05:11:01.541Z,44.90
2019-02-10T05:13:57.274Z,44.80
2019-02-10T05:16:52.990Z,44.50
2019-02-10T05:19:49.316Z,44.40
2019-02-10T05:22:45.257Z,44.50
2019-02-10T05:25:41.488Z,43.90
2019-02-10T05:28:37.289Z,43.60
2019-02-10T05:31:32.649Z,43.40
2019-02-10T05:34:28.153Z,43.30
2019-02-10T05:37:24.091Z,43.10
2019-02-10T05:40:19.405Z,42.80
2019-02-10T05:43:16.210Z,42.70
2019-02-10T05:46:11.036Z,42.50
2019-02-10T05:49:06.785Z,42.40
2019-02-10T05:52:02.708Z,42.20
2019-02-10T05:54:59.150Z,42.30
2019-02-10T05:57:54.688Z,42.20
2019-02-10T06:00:53.090Z,42.00
2019-02-10T06:03:49.103Z,41.70
2019-02-10T06:06:45.108Z,41.50
2019-02-10T06:09:41.057Z,41.10
2019-02-10T06:12:36.879Z,41.00
2019-02-10T06:15:31.827Z,41.00
2019-02-10T06:18:27.601Z,40.90
2019-02-10T06:21:22.826Z,41.00
2019-02-10T06:24:18.237Z,41.10
2019-02-10T06:27:13.817Z,41.10
2019-02-10T06:30:09.633Z,41.00
2019-02-10T06:33:04.856Z,40.50
2019-02-10T06:36:00.656Z,40.30
2019-02-10T06:38:55.815Z,39.90
2019-02-10T06:41:51.225Z,39.70
2019-02-10T06:44:46.942Z,39.30
2019-02-10T06:47:42.318Z,39.20
2019-02-10T06:50:37.460Z,38.60
2019-02-10T06:53:32.472Z,38.50
2019-02-10T06:56:28.294Z,38.30
2019-02-10T06:59:41.071Z,38.30
2019-02-10T07:02:42.348Z,38.40
2019-02-10T07:05:37.041Z,38.80
2019-02-10T07:08:32.164Z,39.00
2019-02-10T07:11:27.784Z,38.80
2019-02-10T07:14:28.401Z,38.60
2019-02-10T07:17:53.907Z,38.60
2019-02-10T07:20:49.462Z,38.20
2019-02-10T07:24:47.838Z,38.40
2019-02-10T07:27:42.589Z,38.00
2019-02-10T07:30:52.270Z,37.70
2019-02-10T07:34:34.886Z,36.70
2019-02-10T07:38:00.100Z,35.90
2019-02-10T07:41:43.027Z,34.80
2019-02-10T07:45:01.717Z,35.00
2019-02-10T07:48:38.387Z,34.50
2019-02-10T07:52:04.445Z,34.60
2019-02-10T07:55:35.145Z,34.50
2019-02-10T07:58:41.398Z,34.40
2019-02-10T08:02:14.188Z,34.50
2019-02-10T08:05:25.305Z,34.30
2019-02-10T08:08:33.738Z,33.50
2019-02-10T08:12:11.603Z,33.10
2019-02-10T08:16:06.815Z,33.20
2019-02-10T08:19:42.136Z,32.40
2019-02-10T08:23:16.051Z,32.20
2019-02-10T08:26:56.774Z,32.30
2019-02-10T08:30:19.765Z,31.80
2019-02-10T08:33:45.120Z,31.60
2019-02-10T08:37:14.935Z,31.40
2019-02-10T08:40:40.349Z,31.50
2019-02-10T08:43:55.816Z,31.50
2019-02-10T08:47:16.931Z,31.40
2019-02-10T08:50:46.567Z,31.40
2019-02-10T08:53:45.191Z,32.00
2019-02-10T08:56:41.221Z,32.30
2019-02-10T08:59:36.462Z,31.90
2019-02-10T09:02:32.149Z,31.30
2019-02-10T09:05:28.066Z,31.30
2019-02-10T09:08:22.841Z,30.90
2019-02-10T09:11:18.009Z,30.70
2019-02-10T09:14:13.681Z,30.40
2019-02-10T09:17:08.876Z,30.30
2019-02-10T09:20:04.349Z,29.90
2019-02-10T09:23:00.075Z,29.90
2019-02-10T09:25:55.502Z,30.00
2019-02-10T09:28:50.663Z,29.40
2019-02-10T09:31:45.989Z,29.50
2019-02-10T09:34:40.848Z,29.50
2019-02-10T09:37:37.118Z,29.40
2019-02-10T09:40:32.357Z,29.20
2019-02-10T09:43:27.512Z,29.60
2019-02-10T09:46:23.294Z,29.80
2019-02-10T09:49:19.838Z,29.90
2019-02-10T09:52:15.890Z,30.00
2019-02-10T09:55:11.824Z,29.80
2019-02-10T09:58:07.727Z,29.10
2019-02-10T10:01:03.344Z,28.60
2019-02-10T10:03:58.871Z,28.30
2019-02-10T10:06:53.916Z,28.00
2019-02-10T10:09:49.775Z,27.70
2019-02-10T10:12:44.470Z,27.40
2019-02-10T10:15:41.210Z,27.40
2019-02-10T10:18:36.500Z,27.40
2019-02-10T10:21:31.630Z,27.40
2019-02-10T10:24:27.105Z,27.50
2019-02-10T10:27:22.019Z,27.20
2019-02-10T10:30:19.555Z,27.10
2019-02-10T10:33:14.204Z,27.00
2019-02-10T10:36:09.247Z,26.60
2019-02-10T10:39:05.241Z,26.60
2019-02-10T10:42:01.697Z,26.50
2019-02-10T10:44:56.482Z,26.40
2019-02-10T10:47:52.191Z,26.60
2019-02-10T10:50:47.380Z,26.90
2019-02-10T10:53:42.698Z,27.40
2019-02-10T10:56:38.219Z,27.60
2019-02-10T10:59:33.563Z,27.70
2019-02-10T11:02:28.425Z,28.10
2019-02-10T11:05:24.402Z,28.30
2019-02-10T11:08:21.060Z,28.50
2019-02-10T11:11:16.647Z,28.70
2019-02-10T11:14:11.615Z,28.60
2019-02-10T11:17:10.369Z,28.60
2019-02-10T11:20:01.602Z,28.80
2019-02-10T11:22:56.183Z,28.80
2019-02-10T11:25:50.692Z,29.10
2019-02-10T11:28:45.533Z,29.20
2019-02-10T11:31:40.446Z,29.30
2019-02-10T11:34:35.443Z,29.30
2019-02-10T11:37:31.135Z,28.90
2019-02-10T11:40:25.247Z,29.40
2019-02-10T11:43:20.754Z,29.60
2019-02-10T11:46:16.133Z,29.40
2019-02-10T11:49:11.147Z,29.50
2019-02-10T11:52:06.117Z,29.80
2019-02-10T11:55:00.751Z,29.80
2019-02-10T11:57:55.363Z,29.90
2019-02-10T12:00:50.370Z,30.00
2019-02-10T12:03:45.675Z,30.00
2019-02-10T12:06:40.536Z,30.00
2019-02-10T12:09:35.218Z,30.30
2019-02-10T12:12:30.078Z,30.70
2019-02-10T12:15:24.869Z,30.70
2019-02-10T12:18:20.154Z,31.00
2019-02-10T12:21:14.959Z,31.00
2019-02-10T12:24:10.213Z,31.20
2019-02-10T12:27:05.089Z,31.10
2019-02-10T12:30:00.737Z,31.50
2019-02-10T12:32:56.824Z,31.60
2019-02-10T12:35:58.181Z,31.70
2019-02-10T12:38:47.663Z,32.10
2019-02-10T12:41:43.188Z,32.20
2019-02-10T12:44:38.528Z,32.40
2019-02-10T12:47:34.455Z,32.70
2019-02-10T12:50:29.577Z,33.00
2019-02-10T12:53:24.178Z,33.10
2019-02-10T12:56:19.232Z,33.10
2019-02-10T12:59:13.662Z,33.10
2019-02-10T13:02:08.639Z,33.00
2019-02-10T13:05:03.455Z,33.20
2019-02-10T13:07:58.667Z,33.40
2019-02-10T13:10:53.599Z,33.50
2019-02-10T13:13:51.617Z,33.70
2019-02-10T13:16:46.418Z,33.80
2019-02-10T13:19:41.146Z,34.10
2019-02-10T13:22:35.988Z,34.20
2019-02-10T13:25:31.248Z,34.30
2019-02-10T13:28:27.770Z,34.40
2019-02-10T13:31:21.332Z,34.60
2019-02-10T13:34:16.412Z,34.90
2019-02-10T13:37:11.807Z,35.00
2019-02-10T13:40:07.245Z,35.30
2019-02-10T13:43:02.328Z,35.30
2019-02-10T13:45:57.276Z,35.70
2019-02-10T13:48:52.115Z,35.80
2019-02-10T13:51:47.644Z,35.80
2019-02-10T13:54:42.566Z,35.70
2019-02-10T13:57:37.674Z,35.70
2019-02-10T14:00:32.228Z,35.90
2019-02-10T14:03:27.270Z,36.10
2019-02-10T14:06:25.163Z,36.30
2019-02-10T14:09:20.084Z,36.40
2019-02-10T14:12:15.402Z,36.60
2019-02-10T14:15:11.426Z,36.60
2019-02-10T14:18:06.352Z,36.70
2019-02-10T14:21:02.566Z,36.80
2019-02-10T14:23:57.280Z,36.80
2019-02-10T14:26:52.473Z,36.70
2019-02-10T14:29:50.711Z,36.90
2019-02-10T14:32:46.410Z,37.10
2019-02-10T14:35:40.945Z,37.30
2019-02-10T14:38:42.753Z,37.30
2019-02-10T14:41:37.854Z,37.50
2019-02-10T14:44:32.655Z,37.40
2019-02-10T14:47:27.793Z,37.50
2019-02-10T14:50:22.649Z,37.60
2019-02-10T14:53:17.359Z,37.80
2019-02-10T14:56:11.876Z,37.90
2019-02-10T14:59:07.087Z,38.10
2019-02-10T15:02:02.290Z,38.10
2019-02-10T15:04:57.151Z,38.20
2019-02-10T15:07:52.026Z,38.40
2019-02-10T15:10:47.475Z,38.50
2019-02-10T15:13:42.589Z,39.30
2019-02-10T15:16:37.959Z,38.70
2019-02-10T15:19:33.401Z,38.70
2019-02-10T15:22:28.376Z,38.80
2019-02-10T15:25:23.148Z,38.60
2019-02-10T15:28:20.206Z,38.60
2019-02-10T15:31:15.344Z,38.70
2019-02-10T15:34:10.560Z,38.70
2019-02-10T15:37:05.423Z,38.80
2019-02-10T15:40:00.660Z,39.00
2019-02-10T15:42:55.982Z,39.00
2019-02-10T15:45:51.333Z,39.00
2019-02-10T15:48:46.414Z,39.20
2019-02-10T15:51:41.292Z,39.40
2019-02-10T15:54:36.673Z,39.40
2019-02-10T15:57:31.747Z,39.40
2019-02-10T16:00:28.733Z,39.50
2019-02-10T16:03:23.631Z,39.60
2019-02-10T16:06:18.436Z,39.80
2019-02-10T16:09:13.139Z,39.90
2019-02-10T16:12:08.176Z,40.00
2019-02-10T16:15:02.988Z,40.00
2019-02-10T16:17:57.819Z,40.00
2019-02-10T16:20:52.532Z,40.00
2019-02-10T16:23:47.031Z,39.90
2019-02-10T16:26:41.767Z,39.60
2019-02-10T16:29:36.577Z,39.40
2019-02-10T16:32:31.191Z,39.50
2019-02-10T16:35:25.889Z,39.60
2019-02-10T16:38:20.669Z,39.70
2019-02-10T16:41:15.231Z,39.70
2019-02-10T16:44:09.817Z,39.80
2019-02-10T16:47:04.639Z,39.90
2019-02-10T16:49:59.287Z,39.80
2019-02-10T16:52:54.251Z,39.80
2019-02-10T16:55:49.415Z,40.00
2019-02-10T16:58:43.984Z,39.90
2019-02-10T17:01:39.085Z,40.20
2019-02-10T17:04:33.664Z,40.40
2019-02-10T17:07:28.228Z,40.60
2019-02-10T17:10:23.647Z,40.90
2019-02-10T17:13:18.411Z,41.10
2019-02-10T17:16:13.349Z,41.20
2019-02-10T17:19:08.602Z,42.00
2019-02-10T17:22:03.334Z,41.40
2019-02-10T17:24:58.044Z,41.50
2019-02-10T17:27:52.601Z,41.30
2019-02-10T17:30:47.745Z,41.40
2019-02-10T17:33:42.711Z,41.50
2019-02-10T17:36:37.527Z,41.50
2019-02-10T17:39:31.988Z,41.40
2019-02-10T17:42:26.535Z,41.40
2019-02-10T17:45:22.782Z,41.40
2019-02-10T17:48:17.703Z,41.40
2019-02-10T17:51:12.524Z,41.60
2019-02-10T17:54:07.338Z,41.60
2019-02-10T17:57:01.949Z,41.50
2019-02-10T17:59:56.906Z,41.60
2019-02-10T18:02:51.951Z,41.60
2019-02-10T18:05:46.873Z,41.50
2019-02-10T18:08:41.690Z,41.80
2019-02-10T18:11:36.513Z,42.10
2019-02-10T18:14:54.703Z,42.10
2019-02-10T18:18:05.673Z,42.10
2019-02-10T18:21:30.936Z,42.10
2019-02-10T18:24:42.065Z,42.00
2019-02-10T18:27:53.704Z,41.80
2019-02-10T18:31:05.049Z,41.90
2019-02-10T18:34:19.976Z,42.10
2019-02-10T18:37:38.501Z,42.20
2019-02-10T18:40:50.065Z,42.40
2019-02-10T18:43:55.611Z,42.50
2019-02-10T18:47:08.756Z,42.50
2019-02-10T18:50:21.203Z,42.50
2019-02-10T18:53:37.888Z,42.60
2019-02-10T18:56:53.425Z,42.80
2019-02-10T19:00:03.088Z,42.80
2019-02-10T19:03:24.928Z,42.80
2019-02-10T19:06:29.151Z,43.00
2019-02-10T19:09:38.813Z,43.00
2019-02-10T19:12:57.820Z,42.40
2019-02-10T19:16:18.999Z,43.30
2019-02-10T19:19:37.146Z,43.30
2019-02-10T19:22:42.566Z,43.30
2019-02-10T19:25:58.529Z,43.20
2019-02-10T19:29:23.046Z,43.30
2019-02-10T19:32:28.277Z,43.40
2019-02-10T19:35:41.001Z,43.30
2019-02-10T19:38:45.613Z,43.20
2019-02-10T19:41:45.903Z,43.40
2019-02-10T19:44:57.387Z,43.40
2019-02-10T19:48:12.630Z,43.40
2019-02-10T19:51:21.861Z,43.20
2019-02-10T19:54:21.574Z,43.20
2019-02-10T19:57:37.370Z,43.20
2019-02-10T20:00:53.031Z,43.10
2019-02-10T20:03:59.588Z,43.10
2019-02-10T20:07:14.399Z,43.20
2019-02-10T20:10:30.305Z,43.20
2019-02-10T20:13:40.836Z,43.00
2019-02-10T20:16:52.320Z,42.90
2019-02-10T20:20:08.150Z,42.70
2019-02-10T20:23:12.586Z,42.90
2019-02-10T20:26:30.622Z,42.90
2019-02-10T20:29:41.873Z,43.10
2019-02-10T20:33:00.306Z,43.10
2019-02-10T20:36:24.978Z,43.10
2019-02-10T20:39:46.732Z,43.10
2019-02-10T20:43:02.374Z,43.40
2019-02-10T20:46:20.147Z,43.50
2019-02-10T20:49:24.590Z,43.70
2019-02-10T20:52:31.288Z,43.70
2019-02-10T20:55:35.445Z,43.80
2019-02-10T20:58:41.366Z,44.00
2019-02-10T21:01:44.849Z,44.30
2019-02-10T21:05:03.299Z,44.40
2019-02-10T21:08:14.288Z,44.60
2019-02-10T21:11:26.893Z,44.70
2019-02-10T21:14:42.597Z,44.90
2019-02-10T21:17:57.806Z,44.90
2019-02-10T21:21:10.616Z,45.00
2019-02-10T21:24:21.244Z,45.60
2019-02-10T21:27:32.937Z,44.90
2019-02-10T21:30:57.717Z,45.10
2019-02-10T21:34:04.082Z,45.20
2019-02-10T21:37:06.400Z,45.80
2019-02-10T21:40:37.482Z,45.70
2019-02-10T21:43:48.578Z,45.80
2019-02-10T21:46:49.942Z,45.90
2019-02-10T21:49:44.871Z,46.00
2019-02-10T21:52:39.945Z,46.10
2019-02-10T21:55:35.264Z,46.20
2019-02-10T21:58:30.613Z,46.20
2019-02-10T22:01:25.728Z,46.40
2019-02-10T22:04:20.371Z,46.40
2019-02-10T22:07:15.304Z,46.60
2019-02-10T22:10:11.586Z,46.60
2019-02-10T22:13:06.556Z,46.80
2019-02-10T22:16:01.339Z,46.80
2019-02-10T22:18:56.303Z,46.90
2019-02-10T22:21:51.435Z,47.00
2019-02-10T22:24:46.095Z,47.10
2019-02-10T22:27:41.016Z,47.10
2019-02-10T22:30:36.108Z,47.30
2019-02-10T22:33:31.231Z,47.30
2019-02-10T22:36:25.827Z,47.30
2019-02-10T22:39:20.422Z,47.40
2019-02-10T22:42:15.378Z,47.40
2019-02-10T22:45:11.174Z,47.50
2019-02-10T22:48:05.968Z,47.50
2019-02-10T22:51:00.500Z,47.60
2019-02-10T22:53:54.724Z,47.60
2019-02-10T22:56:49.677Z,47.80
2019-02-10T22:59:44.862Z,47.90
2019-02-10T23:02:39.470Z,48.00
2019-02-10T23:05:34.269Z,48.10
2019-02-10T23:08:29.010Z,48.30
2019-02-10T23:11:23.708Z,48.30
2019-02-10T23:14:18.717Z,48.40
2019-02-10T23:17:12.998Z,48.40
2019-02-10T23:20:07.351Z,48.50
2019-02-10T23:23:02.257Z,48.50
2019-02-10T23:25:56.941Z,48.50
2019-02-10T23:28:51.919Z,48.60
2019-02-10T23:31:46.747Z,48.60
2019-02-10T23:34:41.439Z,48.60
2019-02-10T23:37:35.873Z,48.70
2019-02-10T23:40:30.464Z,48.70
2019-02-10T23:43:25.336Z,48.80
2019-02-10T23:46:20.828Z,48.80
2019-02-10T23:49:15.732Z,48.70
2019-02-10T23:52:10.591Z,48.30
2019-02-10T23:55:05.122Z,48.20
2019-02-10T23:57:59.796Z,48.20
